Flight Track Log - Related Links

Times and Time Zones

All times are in EST time to prevent confusion due to time zone crossing. See the AAL963 flight status page for this flight to view local times or setup timezone preferences in your user account.

Time Position Orientation Groundspeed Altitude Reporting Facility
EST Latitude Longitude Course Direction KTS MPH feet Rate Location/Type
Wed 10:04:31 PM 32.9314 -97.0247 14° North 172 198 2,100  Level FlightAware ADS-B
Wed 10:04:51 PM 32.9480 -97.0191 16° North 191 220 2,700 1,463 Climbing FlightAware ADS-B
Wed 10:05:12 PM 32.9661 -97.0120 18° North 215 247 3,100 1,317 Climbing FlightAware ADS-B
Wed 10:05:32 PM 32.9875 -97.0034 19° North 236 272 3,600 1,650 Climbing FlightAware ADS-B
Wed 10:05:52 PM 33.0044 -96.9969 18° North 242 278 4,200 2,195 Climbing FlightAware ADS-B
Wed 10:06:13 PM 33.0323 -96.9869 17° North 255 293 5,100 2,286 Climbing FlightAware ADS-B
Wed 10:06:34 PM 33.0548 -96.9795 15° North 261 300 5,800 2,195 Climbing FlightAware ADS-B
Wed 10:06:54 PM 33.0791 -96.9679 22° Northeast 275 316 6,600 2,250 Climbing FlightAware ADS-B
Wed 10:07:14 PM 33.0942 -96.9457 51° Northeast 297 342 7,300 1,946 Climbing FlightAware ADS-B
Wed 10:07:31 PM 33.0980 -96.9170 81° East 315 362 7,800 2,108 Climbing FlightAware ADS-B
Wed 10:07:51 PM 33.0877 -96.8845 111° Southeast 317 365 8,600 2,400 Climbing FlightAware ADS-B
Wed 10:08:11 PM 33.0636 -96.8622 142° Southeast 311 358 9,400 2,361 Climbing FlightAware ADS-B
Wed 10:08:52 PM 33.0109 -96.8405 161° South 313 360 11,000 1,829 Climbing FlightAware ADS-B
Wed 10:09:33 PM 32.9552 -96.8237 166° South 340 391 11,900 1,829 Climbing FlightAware ADS-B
Wed 10:10:14 PM 32.8798 -96.8216 179° South 362 417 13,500 2,122 Climbing FlightAware ADS-B
Wed 10:10:55 PM 32.8127 -96.8222 180° South 379 436 14,800 1,811 Climbing FlightAware ADS-B
Wed 10:11:07 PM 32.7978 -96.8221 180° South 383 441 15,100 2,105 Climbing FlightAware ADS-B
Wed 10:11:52 PM 32.7070 -96.8206 179° South 406 467 16,800 2,372 Climbing FlightAware ADS-B
Wed 10:12:33 PM 32.6311 -96.8189 179° South 411 473 18,500 2,234 Climbing FlightAware ADS-B
Wed 10:13:26 PM 32.5337 -96.8179 180° South 424 488 20,300 2,060 Climbing FlightAware ADS-B
Wed 10:14:47 PM 32.3534 -96.8163 180° South 443 510 23,100 1,930 Climbing FlightAware ADS-B
Wed 10:15:21 PM 32.2829 -96.8109 176° South 459 528 24,000 1,500 Climbing FlightAware ADS-B
Wed 10:15:31 PM 32.2614 -96.8056 168° South 467 537 24,200 1,171 Climbing FlightAware ADS-B
Wed 10:16:02 PM 32.1947 -96.7814 163° South 484 557 24,800 1,292 Climbing FlightAware ADS-B
Wed 10:16:36 PM 32.1229 -96.7540 162° South 494 568 25,600 1,846 Climbing FlightAware ADS-B
Wed 10:17:07 PM 32.0538 -96.7275 162° South 490 564 26,800 2,204 Climbing FlightAware ADS-B
Wed 10:17:25 PM 32.0172 -96.7135 162° South 489 563 27,400 1,857 Climbing FlightAware ADS-B
Wed 10:17:49 PM 31.9643 -96.6934 162° South 491 565 28,100 1,773 Climbing FlightAware ADS-B
Wed 10:18:09 PM 31.9219 -96.6772 162° South 492 566 28,700 1,800 Climbing FlightAware ADS-B
Wed 10:18:19 PM 31.8984 -96.6683 162° South 490 564 29,000 1,800 Climbing FlightAware ADS-B
Wed 10:18:39 PM 31.8559 -96.6521 162° South 490 564 29,600 2,129 Climbing FlightAware ADS-B
Wed 10:18:50 PM 31.8328 -96.6427 161° South 487 560 30,100 1,950 Climbing FlightAware ADS-B
Wed 10:19:19 PM 31.7728 -96.6178 161° South 487 560 30,900 1,371 Climbing FlightAware ADS-B
Wed 10:19:25 PM 31.7586 -96.6119 160° South 485 558 30,900 167 Level FlightAware ADS-B
Wed 10:19:55 PM 31.6952 -96.5858 161° South 475 547 31,000 140 Climbing FlightAware ADS-B
Wed 10:20:08 PM 31.6715 -96.5761 161° South 475 547 31,000  Level FlightAware ADS-B
Wed 10:20:27 PM 31.6286 -96.5586 161° South 474 545 31,000  Level FlightAware ADS-B
Wed 10:20:37 PM 31.6107 -96.5513 161° South 476 548 31,000  Level FlightAware ADS-B
Wed 10:20:59 PM 31.5625 -96.5317 161° South 476 548 31,000  Level FlightAware ADS-B
Wed 10:21:08 PM 31.5457 -96.5249 161° South 477 549 31,000  Level FlightAware ADS-B
Wed 10:21:29 PM 31.4995 -96.5062 161° South 475 547 31,000  Level FlightAware ADS-B
Wed 10:22:00 PM 31.4361 -96.4825 162° South 473 544 31,000  Level FlightAware ADS-B
Wed 10:22:07 PM 31.4208 -96.4769 163° South 474 545 31,000  Level FlightAware ADS-B
Wed 10:22:30 PM 31.3726 -96.4593 163° South 472 543 31,000  Level FlightAware ADS-B
Wed 10:23:01 PM 31.3082 -96.4354 162° South 472 543 31,000  Level FlightAware ADS-B
Wed 10:23:07 PM 31.2957 -96.4307 162° South 473 544 31,000  Level FlightAware ADS-B
Wed 10:23:31 PM 31.2452 -96.4120 162° South 472 543 31,000  Level FlightAware ADS-B
Wed 10:23:47 PM 31.2116 -96.3989 162° South 475 547 31,000  Level FlightAware ADS-B
Wed 10:23:48 PM 31.2116 -96.3989 221° Southwest 475 547 31,000  Level FlightAware ADS-B
Wed 10:23:59 PM 31.1890 -96.3865 155° Southeast 484 557 31,000  Level FlightAware ADS-B
Wed 10:24:08 PM 31.1727 -96.3752 149° Southeast 489 563 31,000  Level FlightAware ADS-B
Wed 10:24:23 PM 31.1420 -96.3521 147° Southeast 493 567 31,000  Level FlightAware ADS-B
Wed 10:24:39 PM 31.1120 -96.3258 143° Southeast 501 577 31,000  Level FlightAware ADS-B
Wed 10:24:43 PM 31.1065 -96.3204 140° Southeast 501 577 31,000  Level FlightAware ADS-B
Wed 10:25:13 PM 31.0556 -96.2637 136° Southeast 509 586 31,000  Level FlightAware ADS-B
Wed 10:25:29 PM 31.0278 -96.2310 135° Southeast 509 586 31,000  Level FlightAware ADS-B
Wed 10:25:43 PM 31.0050 -96.2041 135° Southeast 508 585 31,000  Level FlightAware ADS-B
Wed 10:25:59 PM 30.9792 -96.1734 134° Southeast 509 586 31,000  Level FlightAware ADS-B
Wed 10:26:13 PM 30.9554 -96.1453 135° Southeast 510 587 31,000  Level FlightAware ADS-B
Wed 10:26:30 PM 30.9285 -96.1136 135° Southeast 511 588 31,000  Level FlightAware ADS-B
Wed 10:26:43 PM 30.9053 -96.0864 135° Southeast 509 586 31,000  Level FlightAware ADS-B
Wed 10:27:15 PM 30.8528 -96.0248 135° Southeast 508 585 31,000  Level FlightAware ADS-B
Wed 10:27:29 PM 30.8299 -95.9980 135° Southeast 509 586 31,000  Level FlightAware ADS-B
Wed 10:27:45 PM 30.8026 -95.9663 135° Southeast 508 585 31,000  Level FlightAware ADS-B
Wed 10:28:17 PM 30.7497 -95.9045 135° Southeast 508 585 31,000  Level FlightAware ADS-B
Wed 10:28:29 PM 30.7301 -95.8817 135° Southeast 509 586 31,000  Level FlightAware ADS-B
Wed 10:28:48 PM 30.6992 -95.8457 135° Southeast 506 582 31,000  Level FlightAware ADS-B
Wed 10:28:58 PM 30.6833 -95.8273 135° Southeast 506 582 31,000  Level FlightAware ADS-B
Wed 10:29:18 PM 30.6497 -95.7883 135° Southeast 503 579 31,000  Level FlightAware ADS-B
Wed 10:29:48 PM 30.6000 -95.7307 135° Southeast 504 580 31,000  Level FlightAware ADS-B
Wed 10:30:00 PM 30.5809 -95.7085 135° Southeast 506 582 31,000  Level FlightAware ADS-B
Wed 10:30:18 PM 30.5502 -95.6730 135° Southeast 504 580 31,000  Level FlightAware ADS-B
Wed 10:30:51 PM 30.4966 -95.6109 135° Southeast 504 580 31,000  Level FlightAware ADS-B
Wed 10:30:58 PM 30.4841 -95.5965 135° Southeast 504 580 31,000  Level FlightAware ADS-B
Wed 10:31:22 PM 30.4454 -95.5518 135° Southeast 503 579 31,000  Level FlightAware ADS-B
Wed 10:31:52 PM 30.3958 -95.4946 135° Southeast 502 578 31,000  Level FlightAware ADS-B
Wed 10:31:59 PM 30.3840 -95.4810 135° Southeast 503 579 31,000  Level FlightAware ADS-B
Wed 10:32:22 PM 30.3457 -95.4370 135° Southeast 503 579 31,000  Level FlightAware ADS-B
Wed 10:32:52 PM 30.2958 -95.3796 135° Southeast 501 577 31,000  Level FlightAware ADS-B
Wed 10:32:59 PM 30.2852 -95.3673 135° Southeast 502 578 31,000  Level FlightAware ADS-B
Wed 10:33:23 PM 30.2462 -95.3225 135° Southeast 499 574 31,000  Level FlightAware ADS-B
Wed 10:33:53 PM 30.1968 -95.2660 135° Southeast 498 573 31,000  Level FlightAware ADS-B
Wed 10:34:00 PM 30.1861 -95.2537 135° Southeast 498 573 31,000  Level FlightAware ADS-B
Wed 10:34:24 PM 30.1470 -95.2089 135° Southeast 495 570 31,000  Level FlightAware ADS-B
Wed 10:34:54 PM 30.0977 -95.1526 135° Southeast 493 567 31,000  Level FlightAware ADS-B
Wed 10:34:58 PM 30.0905 -95.1445 136° Southeast 494 568 31,000  Level FlightAware ADS-B
Wed 10:35:24 PM 30.0483 -95.0963 135° Southeast 494 568 31,000  Level FlightAware ADS-B
Wed 10:35:29 PM 30.0402 -95.0871 135° Southeast 495 570 31,000  Level FlightAware ADS-B
Wed 10:35:38 PM 30.0247 -95.0695 135° Southeast 494 568 31,000  Level FlightAware ADS-B
Wed 10:35:55 PM 29.9991 -95.0402 135° Southeast 494 568 31,000  Level FlightAware ADS-B
Wed 10:36:26 PM 29.9489 -94.9832 135° Southeast 492 566 31,000  Level FlightAware ADS-B
Wed 10:36:29 PM 29.9449 -94.9786 135° Southeast 493 567 31,000  Level FlightAware ADS-B
Wed 10:36:56 PM 29.9003 -94.9279 135° Southeast 490 564 31,000  Level FlightAware ADS-B
Wed 10:37:26 PM 29.8519 -94.8729 135° Southeast 491 565 31,000  Level FlightAware ADS-B
Wed 10:37:28 PM 29.8488 -94.8694 136° Southeast 492 566 31,000  Level FlightAware ADS-B
Wed 10:37:56 PM 29.8028 -94.8173 135° Southeast 492 566 31,000  Level FlightAware ADS-B
Wed 10:37:58 PM 29.8245 -94.8419 316° Northwest 492 566 31,000  Level FlightAware ADS-B
Wed 10:38:26 PM 29.7536 -94.7617 136° Southeast 494 568 31,000  Level FlightAware ADS-B
Wed 10:38:29 PM 29.7487 -94.7561 135° Southeast 495 570 31,000  Level FlightAware ADS-B
Wed 10:38:35 PM 29.7454 -94.7524 135° Southeast 494 568 31,000  Level FlightAware ADS-B
Wed 10:38:56 PM 29.7045 -94.7063 136° Southeast 493 567 31,000  Level FlightAware ADS-B
Wed 10:39:27 PM 29.6552 -94.6506 136° Southeast 490 564 31,000  Level FlightAware ADS-B
Wed 10:39:29 PM 29.6513 -94.6462 136° Southeast 492 566 31,000  Level FlightAware ADS-B
Wed 10:39:57 PM 29.6068 -94.5960 136° Southeast 490 564 31,000  Level FlightAware ADS-B
Wed 10:40:27 PM 29.5575 -94.5406 136° Southeast 491 565 31,000  Level FlightAware ADS-B
Wed 10:40:29 PM 29.5549 -94.5376 135° Southeast 492 566 31,000  Level FlightAware ADS-B
Wed 10:40:38 PM 29.5380 -94.5187 136° Southeast 492 566 31,000  Level FlightAware ADS-B
Wed 10:40:57 PM 29.5083 -94.4855 136° Southeast 492 566 31,000  Level FlightAware ADS-B
Wed 10:41:28 PM 29.4587 -94.4299 136° Southeast 494 568 31,000  Level FlightAware ADS-B
Wed 10:41:58 PM 29.4082 -94.3732 136° Southeast 494 568 31,000  Level FlightAware ADS-B
Wed 10:42:29 PM 29.3590 -94.3182 136° Southeast 494 568 31,000  Level FlightAware ADS-B
Wed 10:42:59 PM 29.3096 -94.2630 136° Southeast 496 571 31,000  Level FlightAware ADS-B
Wed 10:43:29 PM 29.2600 -94.2076 136° Southeast 496 571 31,000  Level FlightAware ADS-B
Wed 10:43:47 PM 29.2306 -94.1748 136° Southeast 496 571 31,000  Level FlightAware ADS-B
Wed 10:44:46 PM 29.1432 -94.0776 136° Southeast 494 568 31,000  Level FlightAware ADS-B
Wed 10:45:42 PM 29.0544 -93.9786 136° Southeast 493 567 31,000  Level Houston Center
Wed 10:46:43 PM 28.9556 -93.8694 136° Southeast 493 567 31,000  Level Houston Center
Wed 10:47:43 PM 28.8514 -93.7556 136° Southeast 493 567 31,000  Level Houston Center
Wed 10:48:44 PM 28.7581 -93.6514 136° Southeast 494 568 31,000  Level Houston Center
Wed 10:49:45 PM 28.6581 -93.5425 136° Southeast 497 572 31,000  Level Houston Center
Wed 10:50:46 PM 28.5586 -93.4331 136° Southeast 498 573 31,000  Level Houston Center
Wed 10:51:46 PM 28.4589 -93.3244 136° Southeast 497 572 31,000  Level Houston Center
Wed 10:52:47 PM 28.3550 -93.2119 136° Southeast 495 570 31,000 -49 Level Houston Center
Wed 10:53:48 PM 28.2561 -93.1017 135° Southeast 499 574 30,900  Descending Houston Center
Wed 10:54:49 PM 28.1558 -92.9950 137° Southeast 496 571 31,000  Climbing Houston Center
Wed 10:55:49 PM 28.0564 -92.8889 137° Southeast 493 567 30,900  Descending Houston Center
Wed 10:56:50 PM 27.9567 -92.7794 136° Southeast 497 572 31,000  Climbing Houston Center
Wed 10:57:51 PM 27.8561 -92.6722 137° Southeast 498 573 30,900 -49 Descending Houston Center
Wed 10:58:52 PM 27.7350 -92.5447 137° Southeast 498 573 30,900  Level Houston Center
Wed 10:59:53 PM 27.6358 -92.4367 136° Southeast 496 571 30,900 50 Level Houston Center
Wed 11:00:53 PM 27.5344 -92.3300 137° Southeast 500 575 31,000 50 Climbing Houston Center
Wed 11:01:54 PM 27.4347 -92.2228 136° Southeast 498 573 31,000 -49 Level Houston Center
Wed 11:02:55 PM 27.3344 -92.1183 137° Southeast 494 568 30,900 -49 Descending Houston Center
Wed 11:03:56 PM 27.2336 -92.0142 137° Southeast 494 568 30,900  Level Houston Center
Wed 11:04:56 PM 27.1297 -91.9161 140° Southeast 491 565 30,900 50 Level Houston Center
Wed 11:05:57 PM 27.0083 -91.8094 142° Southeast 493 567 31,000 11 Climbing Houston Center
Wed 11:07:00 PM 26.8934 -91.7184 145° Southeast  Level FlightAware Approximate
Wed 11:14:00 PM 26.1295 -91.1104 145° Southeast  Level FlightAware Approximate
Wed 11:15:00 PM 26.0198 -91.0247 145° Southeast  Level FlightAware Approximate
Wed 11:16:00 PM 25.9101 -90.9391 145° Southeast  Level FlightAware Approximate
Wed 11:17:00 PM 25.8004 -90.8537 145° Southeast  Level FlightAware Approximate
Wed 11:18:00 PM 25.6905 -90.7685 145° Southeast  Level FlightAware Approximate
Wed 11:19:00 PM 25.5809 -90.6831 145° Southeast  Level FlightAware Approximate
Wed 11:20:00 PM 25.4712 -90.5978 145° Southeast  Level FlightAware Approximate
Wed 11:21:00 PM 25.3615 -90.5126 145° Southeast  Level FlightAware Approximate
Wed 11:22:00 PM 25.2518 -90.4276 145° Southeast  Level FlightAware Approximate
Wed 11:23:00 PM 25.1420 -90.3428 145° Southeast  Level FlightAware Approximate
Wed 11:24:00 PM 25.0321 -90.2581 145° Southeast  Level FlightAware Approximate
Wed 11:25:00 PM 24.9222 -90.1735 145° Southeast  Level FlightAware Approximate
Wed 11:26:00 PM 24.8123 -90.0890 145° Southeast  Level FlightAware Approximate
Wed 11:27:00 PM 24.7024 -90.0047 145° Southeast  Level FlightAware Approximate
Wed 11:28:00 PM 24.5924 -89.9205 145° Southeast  Level FlightAware Approximate
Wed 11:29:00 PM 24.4841 -89.8341 138° Southeast  Level FlightAware Approximate
Wed 11:30:00 PM 24.3859 -89.7445 140° Southeast  Level FlightAware Approximate
Wed 11:31:00 PM 24.2877 -89.6551 140° Southeast  Level FlightAware Approximate
Wed 11:32:00 PM 24.1894 -89.5658 140° Southeast  Level FlightAware Approximate
Wed 11:33:00 PM 24.0911 -89.4767 140° Southeast  Level FlightAware Approximate
Wed 11:34:00 PM 23.9927 -89.3877 140° Southeast  Level FlightAware Approximate
Wed 11:35:00 PM 23.8943 -89.2988 140° Southeast  Level FlightAware Approximate
Wed 11:36:00 PM 23.7958 -89.2101 140° Southeast  Level FlightAware Approximate
Wed 11:37:00 PM 23.6972 -89.1215 141° Southeast  Level FlightAware Approximate
Wed 11:38:00 PM 23.5986 -89.0331 141° Southeast  Level FlightAware Approximate
Wed 11:39:00 PM 23.5000 -88.9447 141° Southeast  Level FlightAware Approximate
Wed 11:40:00 PM 23.4013 -88.8565 141° Southeast  Level FlightAware Approximate
Wed 11:41:00 PM 23.3026 -88.7685 141° Southeast  Level FlightAware Approximate
Wed 11:42:00 PM 23.2038 -88.6805 141° Southeast  Level FlightAware Approximate
Wed 11:43:00 PM 23.1049 -88.5927 141° Southeast  Level FlightAware Approximate
Wed 11:44:00 PM 23.0060 -88.5051 141° Southeast  Level FlightAware Approximate
Wed 11:45:00 PM 22.9071 -88.4175 141° Southeast  Level FlightAware Approximate
Wed 11:46:00 PM 22.8081 -88.3301 141° Southeast  Level FlightAware Approximate
Wed 11:47:00 PM 22.7091 -88.2428 141° Southeast  Level FlightAware Approximate
Wed 11:48:00 PM 22.6100 -88.1557 141° Southeast  Level FlightAware Approximate
Wed 11:49:00 PM 22.5109 -88.0686 141° Southeast  Level FlightAware Approximate
Wed 11:50:00 PM 22.4117 -87.9817 141° Southeast  Level FlightAware Approximate
Wed 11:51:00 PM 22.3125 -87.8949 141° Southeast  Level FlightAware Approximate
Wed 11:52:00 PM 22.2132 -87.8083 141° Southeast  Level FlightAware Approximate
Wed 11:53:00 PM 22.1139 -87.7217 141° Southeast  Level FlightAware Approximate
Wed 11:54:00 PM 22.0145 -87.6353 141° Southeast  Level FlightAware Approximate
Wed 11:55:00 PM 21.9151 -87.5490 141° Southeast  Level FlightAware Approximate
Wed 11:56:00 PM 21.8157 -87.4628 141° Southeast  Level FlightAware Approximate
Wed 11:57:00 PM 21.7162 -87.3767 141° Southeast  Level FlightAware Approximate
Wed 11:58:00 PM 21.6167 -87.2908 141° Southeast  Level FlightAware Approximate
Wed 11:59:00 PM 21.5171 -87.2049 141° Southeast  Level FlightAware Approximate
Thu 12:00:00 AM 21.4177 -87.1189 141° Southeast  Level FlightAware Approximate
Thu 12:01:00 AM 21.3183 -87.0330 141° Southeast  Level FlightAware Approximate
Thu 12:02:00 AM 21.2188 -86.9473 141° Southeast  Level FlightAware Approximate
Thu 12:03:00 AM 21.1192 -86.8617 141° Southeast  Level FlightAware Approximate
Thu 12:04:00 AM 21.0196 -86.7762 141° Southeast  Level FlightAware Approximate
Thu 12:05:00 AM 20.9200 -86.6908 141° Southeast  Level FlightAware Approximate
Thu 12:06:00 AM 20.8203 -86.6055 141° Southeast  Level FlightAware Approximate
Thu 12:07:00 AM 20.7206 -86.5203 141° Southeast  Level FlightAware Approximate
Thu 12:08:00 AM 20.6208 -86.4352 141° Southeast  Level FlightAware Approximate
Thu 12:09:00 AM 20.5210 -86.3503 141° Southeast  Level FlightAware Approximate
Thu 12:10:00 AM 20.4212 -86.2654 141° Southeast  Level FlightAware Approximate
Thu 12:11:00 AM 20.3256 -86.1754 137° Southeast  Level FlightAware Approximate
Thu 12:12:00 AM 20.2324 -86.0821 137° Southeast  Level FlightAware Approximate
Thu 12:13:00 AM 20.1392 -85.9889 137° Southeast  Level FlightAware Approximate
Thu 12:14:00 AM 20.0459 -85.8958 137° Southeast  Level FlightAware Approximate
Thu 12:15:00 AM 19.9531 -85.8023 136° Southeast  Level FlightAware Approximate
Thu 12:16:00 AM 19.8605 -85.7085 136° Southeast  Level FlightAware Approximate
Thu 12:17:00 AM 19.7678 -85.6149 136° Southeast  Level FlightAware Approximate
Thu 12:18:00 AM 19.6751 -85.5214 136° Southeast  Level FlightAware Approximate
Thu 12:19:00 AM 19.5823 -85.4280 137° Southeast  Level FlightAware Approximate
Thu 12:20:00 AM 19.4895 -85.3347 137° Southeast  Level FlightAware Approximate
Thu 12:21:00 AM 19.3967 -85.2416 137° Southeast  Level FlightAware Approximate
Thu 12:22:00 AM 19.3038 -85.1485 137° Southeast  Level FlightAware Approximate
Thu 12:23:00 AM 19.2108 -85.0555 137° Southeast  Level FlightAware Approximate
Thu 12:24:00 AM 19.1178 -84.9627 137° Southeast  Level FlightAware Approximate
Thu 12:25:00 AM 19.0248 -84.8699 137° Southeast  Level FlightAware Approximate
Thu 12:26:00 AM 18.9317 -84.7773 137° Southeast  Level FlightAware Approximate
Thu 12:27:00 AM 18.8385 -84.6847 137° Southeast  Level FlightAware Approximate
Thu 12:28:00 AM 18.7453 -84.5923 137° Southeast  Level FlightAware Approximate
Thu 12:29:00 AM 18.6521 -84.4999 137° Southeast  Level FlightAware Approximate
Thu 12:30:00 AM 18.5588 -84.4077 137° Southeast  Level FlightAware Approximate
Thu 12:31:00 AM 18.4655 -84.3156 137° Southeast  Level FlightAware Approximate
Thu 12:32:00 AM 18.3725 -84.2231 137° Southeast  Level FlightAware Approximate
Thu 12:33:00 AM 18.2794 -84.1308 137° Southeast  Level FlightAware Approximate
Thu 12:34:00 AM 18.1863 -84.0386 137° Southeast  Level FlightAware Approximate
Thu 12:35:00 AM 18.0932 -83.9465 137° Southeast  Level FlightAware Approximate
Thu 12:36:00 AM 18.0000 -83.8544 137° Southeast  Level FlightAware Approximate
Thu 12:37:00 AM 17.9067 -83.7625 137° Southeast  Level FlightAware Approximate
Thu 12:38:00 AM 17.8134 -83.6707 137° Southeast  Level FlightAware Approximate
Thu 12:39:00 AM 17.7201 -83.5789 137° Southeast  Level FlightAware Approximate
Thu 12:40:00 AM 17.6268 -83.4873 137° Southeast  Level FlightAware Approximate
Thu 12:41:00 AM 17.5333 -83.3957 137° Southeast  Level FlightAware Approximate
Thu 12:42:00 AM 17.4399 -83.3043 137° Southeast  Level FlightAware Approximate
Thu 12:43:00 AM 17.3464 -83.2129 137° Southeast  Level FlightAware Approximate
Thu 12:44:00 AM 17.2528 -83.1217 137° Southeast  Level FlightAware Approximate
Thu 12:45:00 AM 17.1593 -83.0305 137° Southeast  Level FlightAware Approximate
Thu 12:46:00 AM 17.0656 -82.9394 137° Southeast  Level FlightAware Approximate
Thu 12:47:00 AM 16.9720 -82.8484 137° Southeast  Level FlightAware Approximate
Thu 12:48:00 AM 16.8783 -82.7575 137° Southeast  Level FlightAware Approximate
Thu 12:49:00 AM 16.7845 -82.6667 137° Southeast  Level FlightAware Approximate
Thu 12:50:00 AM 16.6908 -82.5760 137° Southeast  Level FlightAware Approximate
Thu 12:51:00 AM 16.5969 -82.4854 137° Southeast  Level FlightAware Approximate
Thu 12:52:00 AM 16.5031 -82.3948 137° Southeast  Level FlightAware Approximate
Thu 12:53:00 AM 16.4092 -82.3044 137° Southeast  Level FlightAware Approximate
Thu 12:54:00 AM 16.3152 -82.2140 137° Southeast  Level FlightAware Approximate
Thu 12:55:00 AM 16.2207 -82.1243 138° Southeast  Level FlightAware Approximate
Thu 12:56:00 AM 16.1259 -82.0350 138° Southeast  Level FlightAware Approximate
Thu 12:57:00 AM 16.0311 -81.9458 138° Southeast  Level FlightAware Approximate
Thu 12:58:00 AM 15.9362 -81.8567 138° Southeast  Level FlightAware Approximate
Thu 12:59:00 AM 15.8413 -81.7676 138° Southeast  Level FlightAware Approximate
Thu 01:00:00 AM 15.7464 -81.6787 138° Southeast  Level FlightAware Approximate
Thu 01:01:00 AM 15.6514 -81.5898 138° Southeast  Level FlightAware Approximate
Thu 01:02:00 AM 15.5564 -81.5010 138° Southeast  Level FlightAware Approximate
Thu 01:03:00 AM 15.4613 -81.4123 138° Southeast  Level FlightAware Approximate
Thu 01:04:00 AM 15.3662 -81.3236 138° Southeast  Level FlightAware Approximate
Thu 01:05:00 AM 15.2711 -81.2351 138° Southeast  Level FlightAware Approximate
Thu 01:06:00 AM 15.1760 -81.1466 138° Southeast  Level FlightAware Approximate
Thu 01:07:00 AM 15.0808 -81.0582 138° Southeast  Level FlightAware Approximate
Thu 01:08:00 AM 14.9857 -80.9698 138° Southeast  Level FlightAware Approximate
Thu 01:09:00 AM 14.8912 -80.8806 138° Southeast  Level FlightAware Approximate
Thu 01:10:00 AM 14.7967 -80.7915 138° Southeast  Level FlightAware Approximate
Thu 01:11:00 AM 14.7022 -80.7026 138° Southeast  Level FlightAware Approximate
Thu 01:12:00 AM 14.6076 -80.6136 138° Southeast  Level FlightAware Approximate
Thu 01:13:00 AM 14.5130 -80.5248 138° Southeast  Level FlightAware Approximate
Thu 01:14:00 AM 14.4184 -80.4360 138° Southeast  Level FlightAware Approximate
Thu 01:15:00 AM 14.3237 -80.3473 138° Southeast  Level FlightAware Approximate
Thu 01:16:00 AM 14.2290 -80.2587 138° Southeast  Level FlightAware Approximate
Thu 01:17:00 AM 14.1343 -80.1702 138° Southeast  Level FlightAware Approximate
Thu 01:18:00 AM 14.0396 -80.0817 138° Southeast  Level FlightAware Approximate
Thu 01:19:00 AM 13.9448 -79.9933 138° Southeast  Level FlightAware Approximate
Thu 01:20:00 AM 13.8499 -79.9050 138° Southeast  Level FlightAware Approximate
Thu 01:21:00 AM 13.7551 -79.8167 138° Southeast  Level FlightAware Approximate
Thu 01:22:00 AM 13.6602 -79.7286 138° Southeast  Level FlightAware Approximate
Thu 01:23:00 AM 13.5652 -79.6406 138° Southeast  Level FlightAware Approximate
Thu 01:24:00 AM 13.4701 -79.5527 138° Southeast  Level FlightAware Approximate
Thu 01:25:00 AM 13.3750 -79.4649 138° Southeast  Level FlightAware Approximate
Thu 01:26:00 AM 13.2798 -79.3771 138° Southeast  Level FlightAware Approximate
Thu 01:27:00 AM 13.1847 -79.2895 138° Southeast  Level FlightAware Approximate
Thu 01:28:00 AM 13.0894 -79.2018 138° Southeast  Level FlightAware Approximate
Thu 01:29:00 AM 12.9942 -79.1143 138° Southeast  Level FlightAware Approximate
Thu 01:30:00 AM 12.8990 -79.0268 138° Southeast  Level FlightAware Approximate
Thu 01:31:00 AM 12.8037 -78.9394 138° Southeast  Level FlightAware Approximate
Thu 01:32:00 AM 12.7084 -78.8520 138° Southeast  Level FlightAware Approximate
Thu 01:33:00 AM 12.6131 -78.7647 138° Southeast  Level FlightAware Approximate
Thu 01:34:00 AM 12.5177 -78.6775 138° Southeast  Level FlightAware Approximate
Thu 01:35:00 AM 12.4223 -78.5904 138° Southeast  Level FlightAware Approximate
Thu 01:36:00 AM 12.3268 -78.5033 138° Southeast  Level FlightAware Approximate
Thu 01:37:00 AM 12.2314 -78.4163 138° Southeast  Level FlightAware Approximate
Thu 01:38:00 AM 12.1359 -78.3293 138° Southeast  Level FlightAware Approximate
Thu 01:39:00 AM 12.0404 -78.2424 138° Southeast  Level FlightAware Approximate
Thu 01:40:00 AM 11.9449 -78.1555 138° Southeast  Level FlightAware Approximate
Thu 01:41:00 AM 11.8493 -78.0688 138° Southeast  Level FlightAware Approximate
Thu 01:42:00 AM 11.7537 -77.9820 138° Southeast  Level FlightAware Approximate
Thu 01:43:00 AM 11.6580 -77.8955 139° Southeast  Level FlightAware Approximate
Thu 01:44:00 AM 11.5621 -77.8092 139° Southeast  Level FlightAware Approximate
Thu 01:45:00 AM 11.4662 -77.7230 139° Southeast  Level FlightAware Approximate
Thu 01:46:00 AM 11.3702 -77.6368 139° Southeast  Level FlightAware Approximate
Thu 01:47:00 AM 11.2742 -77.5507 139° Southeast  Level FlightAware Approximate
Thu 01:48:00 AM 11.1782 -77.4647 139° Southeast  Level FlightAware Approximate
Thu 01:49:00 AM 11.0822 -77.3787 139° Southeast  Level FlightAware Approximate
Thu 01:50:00 AM 10.9861 -77.2927 139° Southeast  Level FlightAware Approximate
Thu 01:51:00 AM 10.8900 -77.2068 139° Southeast  Level FlightAware Approximate
Thu 01:52:00 AM 10.7939 -77.1210 139° Southeast  Level FlightAware Approximate
Thu 01:53:00 AM 10.6978 -77.0352 139° Southeast  Level FlightAware Approximate
Thu 01:54:00 AM 10.6017 -76.9495 139° Southeast  Level FlightAware Approximate
Thu 01:55:00 AM 10.5055 -76.8638 139° Southeast  Level FlightAware Approximate
Thu 01:56:00 AM 10.4093 -76.7782 139° Southeast  Level FlightAware Approximate
Thu 01:57:00 AM 10.3131 -76.6926 139° Southeast  Level FlightAware Approximate
Thu 01:58:00 AM 10.2168 -76.6071 139° Southeast  Level FlightAware Approximate
Thu 01:59:00 AM 10.1206 -76.5217 139° Southeast  Level FlightAware Approximate
Thu 02:00:00 AM 10.0243 -76.4363 139° Southeast  Level FlightAware Approximate
Thu 02:01:00 AM 9.9280 -76.3509 139° Southeast  Level FlightAware Approximate
Thu 02:02:00 AM 9.8316 -76.2656 139° Southeast  Level FlightAware Approximate
Thu 02:03:00 AM 9.7353 -76.1803 139° Southeast  Level FlightAware Approximate
Thu 02:04:00 AM 9.6389 -76.0951 139° Southeast  Level FlightAware Approximate
Thu 02:05:00 AM 9.5425 -76.0100 139° Southeast  Level FlightAware Approximate
Thu 02:06:00 AM 9.4461 -75.9249 139° Southeast  Level FlightAware Approximate
Thu 02:07:00 AM 9.3497 -75.8398 139° Southeast  Level FlightAware Approximate
Thu 02:08:00 AM 9.2532 -75.7548 139° Southeast  Level FlightAware Approximate
Thu 02:09:00 AM 9.1567 -75.6698 139° Southeast  Level FlightAware Approximate
Thu 02:10:00 AM 9.0602 -75.5849 139° Southeast  Level FlightAware Approximate
Thu 02:11:00 AM 8.9637 -75.5000 139° Southeast  Level FlightAware Approximate
Thu 02:12:00 AM 8.8672 -75.4152 139° Southeast  Level FlightAware Approximate
Thu 02:13:00 AM 8.7706 -75.3304 139° Southeast  Level FlightAware Approximate
Thu 02:14:00 AM 8.6741 -75.2457 139° Southeast  Level FlightAware Approximate
Thu 02:15:00 AM 8.5775 -75.1609 139° Southeast  Level FlightAware Approximate
Thu 02:16:00 AM 8.4809 -75.0763 139° Southeast  Level FlightAware Approximate
Thu 02:17:00 AM 8.3842 -74.9917 139° Southeast  Level FlightAware Approximate
Thu 02:18:00 AM 8.2876 -74.9071 139° Southeast  Level FlightAware Approximate
Thu 02:19:00 AM 8.1909 -74.8226 139° Southeast  Level FlightAware Approximate
Thu 02:20:00 AM 8.0942 -74.7381 139° Southeast  Level FlightAware Approximate
Thu 02:21:00 AM 7.9976 -74.6536 139° Southeast  Level FlightAware Approximate
Thu 02:22:00 AM 7.9008 -74.5692 139° Southeast  Level FlightAware Approximate
Thu 02:23:00 AM 7.8041 -74.4849 139° Southeast  Level FlightAware Approximate
Thu 02:24:00 AM 7.7073 -74.4005 139° Southeast  Level FlightAware Approximate
Thu 02:25:00 AM 7.6106 -74.3162 139° Southeast  Level FlightAware Approximate
Thu 02:26:00 AM 7.5138 -74.2320 139° Southeast  Level FlightAware Approximate
Thu 02:27:00 AM 7.4170 -74.1478 139° Southeast  Level FlightAware Approximate
Thu 02:28:00 AM 7.3202 -74.0636 139° Southeast  Level FlightAware Approximate
Thu 02:29:00 AM 7.2234 -73.9794 139° Southeast  Level FlightAware Approximate
Thu 02:30:00 AM 7.1265 -73.8953 139° Southeast  Level FlightAware Approximate
Thu 02:31:00 AM 7.0297 -73.8113 139° Southeast  Level FlightAware Approximate
Thu 02:32:00 AM 6.9193 -73.7470 152° Southeast  Level FlightAware Approximate
Thu 02:33:00 AM 6.8068 -73.6858 152° Southeast  Level FlightAware Approximate
Thu 02:34:00 AM 6.6943 -73.6246 152° Southeast  Level FlightAware Approximate
Thu 02:35:00 AM 6.5818 -73.5635 152° Southeast  Level FlightAware Approximate
Thu 02:36:00 AM 6.4693 -73.5024 152° Southeast  Level FlightAware Approximate
Thu 02:37:00 AM 6.3568 -73.4413 152° Southeast  Level FlightAware Approximate
Thu 02:38:00 AM 6.2443 -73.3802 152° Southeast  Level FlightAware Approximate
Thu 02:39:00 AM 6.1318 -73.3193 152° Southeast  Level FlightAware Approximate
Thu 02:40:00 AM 6.0192 -73.2583 152° Southeast  Level FlightAware Approximate
Thu 02:41:00 AM 5.9067 -73.1974 152° Southeast  Level FlightAware Approximate
Thu 02:42:00 AM 5.7939 -73.1364 152° Southeast  Level FlightAware Approximate
Thu 02:43:00 AM 5.6811 -73.0754 152° Southeast  Level FlightAware Approximate
Thu 02:44:00 AM 5.5684 -73.0144 152° Southeast  Level FlightAware Approximate
Thu 02:45:00 AM 5.4556 -72.9535 152° Southeast  Level FlightAware Approximate
Thu 02:46:00 AM 5.3428 -72.8926 152° Southeast  Level FlightAware Approximate
Thu 02:47:00 AM 5.2300 -72.8317 152° Southeast  Level FlightAware Approximate
Thu 02:48:00 AM 5.1172 -72.7708 152° Southeast  Level FlightAware Approximate
Thu 02:49:00 AM 5.0044 -72.7100 152° Southeast  Level FlightAware Approximate
Thu 02:50:00 AM 4.8916 -72.6491 152° Southeast  Level FlightAware Approximate
Thu 02:51:00 AM 4.7788 -72.5883 152° Southeast  Level FlightAware Approximate
Thu 02:52:00 AM 4.6659 -72.5275 152° Southeast  Level FlightAware Approximate
Thu 02:53:00 AM 4.5531 -72.4668 152° Southeast  Level FlightAware Approximate
Thu 02:54:00 AM 4.4403 -72.4060 152° Southeast  Level FlightAware Approximate
Thu 02:55:00 AM 4.3274 -72.3453 152° Southeast  Level FlightAware Approximate
Thu 02:56:00 AM 4.2146 -72.2846 152° Southeast  Level FlightAware Approximate
Thu 02:57:00 AM 4.1018 -72.2239 152° Southeast  Level FlightAware Approximate
Thu 02:58:00 AM 3.9889 -72.1632 152° Southeast  Level FlightAware Approximate
Thu 02:59:00 AM 3.8802 -72.0957 145° Southeast  Level FlightAware Approximate
Thu 03:00:00 AM 3.7756 -72.0217 145° Southeast  Level FlightAware Approximate
Thu 03:01:00 AM 3.6710 -71.9477 145° Southeast  Level FlightAware Approximate
Thu 03:02:00 AM 3.5664 -71.8737 145° Southeast  Level FlightAware Approximate
Thu 03:03:00 AM 3.4618 -71.7997 145° Southeast  Level FlightAware Approximate
Thu 03:04:00 AM 3.3572 -71.7257 145° Southeast  Level FlightAware Approximate
Thu 03:05:00 AM 3.2525 -71.6518 145° Southeast  Level FlightAware Approximate
Thu 03:06:00 AM 3.1476 -71.5783 145° Southeast  Level FlightAware Approximate
Thu 03:07:00 AM 3.0427 -71.5048 145° Southeast  Level FlightAware Approximate
Thu 03:08:00 AM 2.9377 -71.4313 145° Southeast  Level FlightAware Approximate
Thu 03:09:00 AM 2.8328 -71.3578 145° Southeast  Level FlightAware Approximate
Thu 03:10:00 AM 2.7278 -71.2844 145° Southeast  Level FlightAware Approximate
Thu 03:11:00 AM 2.6228 -71.2110 145° Southeast  Level FlightAware Approximate
Thu 03:12:00 AM 2.5180 -71.1373 145° Southeast  Level FlightAware Approximate
Thu 03:13:00 AM 2.4133 -71.0636 145° Southeast  Level FlightAware Approximate
Thu 03:14:00 AM 2.3085 -70.9898 145° Southeast  Level FlightAware Approximate
Thu 03:15:00 AM 2.2038 -70.9161 145° Southeast  Level FlightAware Approximate
Thu 03:16:00 AM 2.0991 -70.8423 145° Southeast  Level FlightAware Approximate
Thu 03:17:00 AM 1.9943 -70.7686 145° Southeast  Level FlightAware Approximate
Thu 03:18:00 AM 1.8896 -70.6949 145° Southeast  Level FlightAware Approximate
Thu 03:19:00 AM 1.7848 -70.6212 145° Southeast  Level FlightAware Approximate
Thu 03:20:00 AM 1.6801 -70.5475 145° Southeast  Level FlightAware Approximate
Thu 03:21:00 AM 1.5753 -70.4738 145° Southeast  Level FlightAware Approximate
Thu 03:22:00 AM 1.4706 -70.4001 145° Southeast  Level FlightAware Approximate
Thu 03:23:00 AM 1.3658 -70.3265 145° Southeast  Level FlightAware Approximate
Thu 03:24:00 AM 1.2610 -70.2528 145° Southeast  Level FlightAware Approximate
Thu 03:25:00 AM 1.1630 -70.1707 138° Southeast  Level FlightAware Approximate
Thu 03:26:00 AM 1.0673 -70.0856 138° Southeast  Level FlightAware Approximate
Thu 03:27:00 AM 0.9717 -70.0004 138° Southeast  Level FlightAware Approximate
Thu 03:28:00 AM 0.8760 -69.9153 138° Southeast  Level FlightAware Approximate
Thu 03:29:00 AM 0.7803 -69.8301 138° Southeast  Level FlightAware Approximate
Thu 03:30:00 AM 0.6847 -69.7450 138° Southeast  Level FlightAware Approximate
Thu 03:31:00 AM 0.5890 -69.6599 138° Southeast  Level FlightAware Approximate
Thu 03:32:00 AM 0.4933 -69.5748 138° Southeast  Level FlightAware Approximate
Thu 03:33:00 AM 0.3976 -69.4896 138° Southeast  Level FlightAware Approximate
Thu 03:34:00 AM 0.3020 -69.4045 138° Southeast  Level FlightAware Approximate
Thu 03:35:00 AM 0.2063 -69.3194 138° Southeast  Level FlightAware Approximate
Thu 03:36:00 AM 0.1106 -69.2343 138° Southeast  Level FlightAware Approximate
Thu 03:37:00 AM 0.0149 -69.1492 138° Southeast  Level FlightAware Approximate
Thu 03:38:00 AM -0.0807 -69.0640 138° Southeast  Level FlightAware Approximate
Thu 03:39:00 AM -0.1764 -68.9789 138° Southeast  Level FlightAware Approximate
Thu 03:40:00 AM -0.2721 -68.8938 138° Southeast  Level FlightAware Approximate
Thu 03:41:00 AM -0.3678 -68.8087 138° Southeast  Level FlightAware Approximate
Thu 03:42:00 AM -0.4634 -68.7236 138° Southeast  Level FlightAware Approximate
Thu 03:43:00 AM -0.5591 -68.6385 138° Southeast  Level FlightAware Approximate
Thu 03:44:00 AM -0.6548 -68.5533 138° Southeast  Level FlightAware Approximate
Thu 03:45:00 AM -0.7505 -68.4682 138° Southeast  Level FlightAware Approximate
Thu 03:46:00 AM -0.8461 -68.3831 138° Southeast  Level FlightAware Approximate
Thu 03:47:00 AM -0.9418 -68.2979 138° Southeast  Level FlightAware Approximate
Thu 03:48:00 AM -1.0374 -68.2128 138° Southeast  Level FlightAware Approximate
Thu 03:49:00 AM -1.1331 -68.1276 138° Southeast  Level FlightAware Approximate
Thu 03:50:00 AM -1.2288 -68.0425 138° Southeast  Level FlightAware Approximate
Thu 03:51:00 AM -1.3244 -67.9573 138° Southeast  Level FlightAware Approximate
Thu 03:52:00 AM -1.4201 -67.8721 138° Southeast  Level FlightAware Approximate
Thu 03:53:00 AM -1.5157 -67.7870 138° Southeast  Level FlightAware Approximate
Thu 03:54:00 AM -1.6114 -67.7018 138° Southeast  Level FlightAware Approximate
Thu 03:55:00 AM -1.7070 -67.6166 138° Southeast  Level FlightAware Approximate
Thu 03:56:00 AM -1.8027 -67.5314 138° Southeast  Level FlightAware Approximate
Thu 03:57:00 AM -1.8983 -67.4462 138° Southeast  Level FlightAware Approximate
Thu 03:58:00 AM -1.9939 -67.3610 138° Southeast  Level FlightAware Approximate
Thu 03:59:00 AM -2.0896 -67.2758 138° Southeast  Level FlightAware Approximate
Thu 04:00:00 AM -2.1852 -67.1905 138° Southeast  Level FlightAware Approximate
Thu 04:01:00 AM -2.2808 -67.1053 138° Southeast  Level FlightAware Approximate
Thu 04:02:00 AM -2.3764 -67.0200 138° Southeast  Level FlightAware Approximate
Thu 04:03:00 AM -2.4720 -66.9348 138° Southeast  Level FlightAware Approximate
Thu 04:04:00 AM -2.5676 -66.8495 138° Southeast  Level FlightAware Approximate
Thu 04:05:00 AM -2.6632 -66.7642 138° Southeast  Level FlightAware Approximate
Thu 04:06:00 AM -2.7588 -66.6789 138° Southeast  Level FlightAware Approximate
Thu 04:07:00 AM -2.8544 -66.5936 138° Southeast  Level FlightAware Approximate
Thu 04:08:00 AM -2.9500 -66.5082 138° Southeast  Level FlightAware Approximate
Thu 04:09:00 AM -3.0455 -66.4229 138° Southeast  Level FlightAware Approximate
Thu 04:10:00 AM -3.1409 -66.3376 138° Southeast  Level FlightAware Approximate
Thu 04:11:00 AM -3.2363 -66.2524 138° Southeast  Level FlightAware Approximate
Thu 04:12:00 AM -3.3317 -66.1672 138° Southeast  Level FlightAware Approximate
Thu 04:13:00 AM -3.4271 -66.0819 138° Southeast  Level FlightAware Approximate
Thu 04:14:00 AM -3.5225 -65.9966 138° Southeast  Level FlightAware Approximate
Thu 04:15:00 AM -3.6178 -65.9113 138° Southeast  Level FlightAware Approximate
Thu 04:16:00 AM -3.7132 -65.8260 138° Southeast  Level FlightAware Approximate
Thu 04:17:00 AM -3.8085 -65.7406 138° Southeast  Level FlightAware Approximate
Thu 04:18:00 AM -3.9039 -65.6553 138° Southeast  Level FlightAware Approximate
Thu 04:19:00 AM -3.9992 -65.5699 138° Southeast  Level FlightAware Approximate
Thu 04:20:00 AM -4.0945 -65.4845 138° Southeast  Level FlightAware Approximate
Thu 04:21:00 AM -4.1898 -65.3991 138° Southeast  Level FlightAware Approximate
Thu 04:22:00 AM -4.2851 -65.3137 138° Southeast  Level FlightAware Approximate
Thu 04:23:00 AM -4.3804 -65.2282 138° Southeast  Level FlightAware Approximate
Thu 04:24:00 AM -4.4757 -65.1427 138° Southeast  Level FlightAware Approximate
Thu 04:25:00 AM -4.5710 -65.0572 138° Southeast  Level FlightAware Approximate
Thu 04:26:00 AM -4.6662 -64.9717 138° Southeast  Level FlightAware Approximate
Thu 04:27:00 AM -4.7615 -64.8861 138° Southeast  Level FlightAware Approximate
Thu 04:28:00 AM -4.8567 -64.8006 138° Southeast  Level FlightAware Approximate
Thu 04:29:00 AM -4.9520 -64.7150 138° Southeast  Level FlightAware Approximate
Thu 04:30:00 AM -5.0472 -64.6293 138° Southeast  Level FlightAware Approximate
Thu 04:31:00 AM -5.1424 -64.5437 138° Southeast  Level FlightAware Approximate
Thu 04:32:00 AM -5.2376 -64.4580 138° Southeast  Level FlightAware Approximate
Thu 04:33:00 AM -5.3328 -64.3723 138° Southeast  Level FlightAware Approximate
Thu 04:34:00 AM -5.4280 -64.2866 138° Southeast  Level FlightAware Approximate
Thu 04:35:00 AM -5.5231 -64.2009 138° Southeast  Level FlightAware Approximate
Thu 04:36:00 AM -5.6183 -64.1151 138° Southeast  Level FlightAware Approximate
Thu 04:37:00 AM -5.7134 -64.0293 138° Southeast  Level FlightAware Approximate
Thu 04:38:00 AM -5.8085 -63.9434 138° Southeast  Level FlightAware Approximate
Thu 04:39:00 AM -5.9036 -63.8576 138° Southeast  Level FlightAware Approximate
Thu 04:40:00 AM -5.9988 -63.7717 138° Southeast  Level FlightAware Approximate
Thu 04:41:00 AM -6.0938 -63.6858 138° Southeast  Level FlightAware Approximate
Thu 04:42:00 AM -6.1889 -63.5998 138° Southeast  Level FlightAware Approximate
Thu 04:43:00 AM -6.2840 -63.5138 138° Southeast  Level FlightAware Approximate
Thu 04:44:00 AM -6.3790 -63.4278 138° Southeast  Level FlightAware Approximate
Thu 04:45:00 AM -6.4741 -63.3418 138° Southeast  Level FlightAware Approximate
Thu 04:46:00 AM -6.5691 -63.2557 138° Southeast  Level FlightAware Approximate
Thu 04:47:00 AM -6.6641 -63.1696 138° Southeast  Level FlightAware Approximate
Thu 04:48:00 AM -6.7591 -63.0834 138° Southeast  Level FlightAware Approximate
Thu 04:49:00 AM -6.8540 -62.9972 138° Southeast  Level FlightAware Approximate
Thu 04:50:00 AM -6.9490 -62.9110 138° Southeast  Level FlightAware Approximate
Thu 04:51:00 AM -7.0439 -62.8248 138° Southeast  Level FlightAware Approximate
Thu 04:52:00 AM -7.1389 -62.7385 138° Southeast  Level FlightAware Approximate
Thu 04:53:00 AM -7.2338 -62.6521 138° Southeast  Level FlightAware Approximate
Thu 04:54:00 AM -7.3287 -62.5658 138° Southeast  Level FlightAware Approximate
Thu 04:55:00 AM -7.4235 -62.4794 138° Southeast  Level FlightAware Approximate
Thu 04:56:00 AM -7.5184 -62.3930 138° Southeast  Level FlightAware Approximate
Thu 04:57:00 AM -7.6132 -62.3065 138° Southeast  Level FlightAware Approximate
Thu 04:58:00 AM -7.7081 -62.2200 138° Southeast  Level FlightAware Approximate
Thu 04:59:00 AM -7.8029 -62.1334 138° Southeast  Level FlightAware Approximate
Thu 05:00:00 AM -7.8977 -62.0468 138° Southeast  Level FlightAware Approximate
Thu 05:01:00 AM -7.9924 -61.9602 138° Southeast  Level FlightAware Approximate
Thu 05:02:00 AM -8.0872 -61.8736 138° Southeast  Level FlightAware Approximate
Thu 05:03:00 AM -8.1819 -61.7868 138° Southeast  Level FlightAware Approximate
Thu 05:04:00 AM -8.2767 -61.7001 138° Southeast  Level FlightAware Approximate
Thu 05:05:00 AM -8.3714 -61.6133 138° Southeast  Level FlightAware Approximate
Thu 05:06:00 AM -8.4660 -61.5265 138° Southeast  Level FlightAware Approximate
Thu 05:07:00 AM -8.5607 -61.4396 138° Southeast  Level FlightAware Approximate
Thu 05:08:00 AM -8.6553 -61.3527 138° Southeast  Level FlightAware Approximate
Thu 05:09:00 AM -8.7500 -61.2657 138° Southeast  Level FlightAware Approximate
Thu 05:10:00 AM -8.8446 -61.1787 138° Southeast  Level FlightAware Approximate
Thu 05:11:00 AM -8.9391 -61.0917 138° Southeast  Level FlightAware Approximate
Thu 05:12:00 AM -9.0337 -61.0046 138° Southeast  Level FlightAware Approximate
Thu 05:13:00 AM -9.1282 -60.9174 138° Southeast  Level FlightAware Approximate
Thu 05:14:00 AM -9.2231 -60.8299 138° Southeast  Level FlightAware Approximate
Thu 05:15:00 AM -9.3179 -60.7424 138° Southeast  Level FlightAware Approximate
Thu 05:16:00 AM -9.4127 -60.6548 138° Southeast  Level FlightAware Approximate
Thu 05:17:00 AM -9.5075 -60.5672 138° Southeast  Level FlightAware Approximate
Thu 05:18:00 AM -9.6022 -60.4795 138° Southeast  Level FlightAware Approximate
Thu 05:19:00 AM -9.6970 -60.3918 138° Southeast  Level FlightAware Approximate
Thu 05:20:00 AM -9.7917 -60.3040 138° Southeast  Level FlightAware Approximate
Thu 05:21:00 AM -9.8864 -60.2162 138° Southeast  Level FlightAware Approximate
Thu 05:22:00 AM -9.9811 -60.1283 138° Southeast  Level FlightAware Approximate
Thu 05:23:00 AM -10.0757 -60.0404 138° Southeast  Level FlightAware Approximate
Thu 05:24:00 AM -10.1703 -59.9524 138° Southeast  Level FlightAware Approximate
Thu 05:25:00 AM -10.2649 -59.8643 138° Southeast  Level FlightAware Approximate
Thu 05:26:00 AM -10.3595 -59.7763 138° Southeast  Level FlightAware Approximate
Thu 05:27:00 AM -10.4541 -59.6881 137° Southeast  Level FlightAware Approximate
Thu 05:28:00 AM -10.5486 -59.5999 137° Southeast  Level FlightAware Approximate
Thu 05:29:00 AM -10.6431 -59.5117 137° Southeast  Level FlightAware Approximate
Thu 05:30:00 AM -10.7376 -59.4234 137° Southeast  Level FlightAware Approximate
Thu 05:31:00 AM -10.8320 -59.3350 137° Southeast  Level FlightAware Approximate
Thu 05:31:10 AM -12.8237 -55.9413 137° Southeast 470 541 35,000  Level FlightAware ADS-B (EPSY / SZY)
Thu 05:32:00 AM -10.9264 -59.2466 137° Southeast  Level FlightAware Approximate
Thu 05:32:11 AM -12.9196 -55.8461 136° Southeast 470 541 35,000  Level FlightAware ADS-B (EPSY / SZY)
Thu 05:32:54 AM -12.9852 -55.7808 136° Southeast 471 542 35,000  Level FlightAware ADS-B (EPSY / SZY)
Thu 05:33:36 AM -13.0518 -55.7145 136° Southeast 470 541 35,000  Level FlightAware ADS-B (EPSY / SZY)
Thu 05:34:08 AM -13.0914 -55.6750 136° Southeast 470 541 35,000  Level FlightAware ADS-B (EPSY / SZY)
Thu 05:34:41 AM -13.1431 -55.6233 136° Southeast 470 541 35,000  Level FlightAware ADS-B (EPSY / SZY)
Thu 05:35:25 AM -13.2215 -55.5453 136° Southeast 470 541 35,000  Level FlightAware ADS-B (EPSY / SZY)
Thu 05:35:56 AM -13.2697 -55.4971 136° Southeast 469 540 35,000  Level FlightAware ADS-B (EPSY / SZY)
Thu 05:36:56 AM -13.3627 -55.4041 136° Southeast 470 541 35,000  Level FlightAware ADS-B (EPSY / SZY)
Thu 05:37:26 AM -13.4101 -55.3568 136° Southeast 468 539 35,000  Level FlightAware ADS-B (EPSY / SZY)
Thu 05:37:56 AM -13.4568 -55.3100 136° Southeast 468 539 35,000  Level FlightAware ADS-B (EPSY / SZY)
Thu 05:38:26 AM -13.5004 -55.2664 136° Southeast 469 540 35,000  Level FlightAware ADS-B (EPSY / SZY)
Thu 05:39:10 AM -13.5582 -55.2085 136° Southeast 468 539 35,000  Level FlightAware ADS-B (EPSY / SZY)
Thu 05:39:56 AM -13.6424 -55.1241 136° Southeast 468 539 35,000  Level FlightAware ADS-B (EPSY / SZY)
Thu 05:40:40 AM -13.6988 -55.0674 136° Southeast 469 540 35,000  Level FlightAware ADS-B (EPSY / SZY)
Thu 05:41:25 AM -13.7811 -54.9848 136° Southeast 469 540 35,000  Level FlightAware ADS-B (EPSY / SZY)
Thu 05:42:11 AM -13.8519 -54.9135 136° Southeast 470 541 35,000  Level FlightAware ADS-B (EPSY / SZY)
Thu 05:42:41 AM -13.8991 -54.8661 136° Southeast 470 541 35,000  Level FlightAware ADS-B (EPSY / SZY)
Thu 05:43:27 AM -13.9494 -54.8154 136° Southeast 470 541 35,000  Level FlightAware ADS-B (EPSY / SZY)
Thu 05:44:08 AM -14.0302 -54.7340 136° Southeast 471 542 35,000  Level FlightAware ADS-B (EPSY / SZY)
Thu 05:44:41 AM -14.0790 -54.6849 136° Southeast 471 542 35,000 -203 Level FlightAware ADS-B (EPSY / SZY)
Thu 05:47:00 AM -14.3115 -54.4939 141° Southeast  Level Estimated
Thu 05:48:00 AM -14.4118 -54.4114 141° Southeast  Level Estimated
Thu 05:49:00 AM -14.5121 -54.3288 141° Southeast  Level Estimated
Thu 05:50:00 AM -14.6123 -54.2461 141° Southeast  Level Estimated
Thu 05:51:00 AM -14.7125 -54.1633 141° Southeast  Level Estimated
Thu 05:52:00 AM -14.8127 -54.0805 141° Southeast  Level Estimated
Thu 05:53:00 AM -14.9129 -53.9976 141° Southeast  Level Estimated
Thu 05:54:00 AM -15.0130 -53.9146 141° Southeast  Level Estimated
Thu 05:55:00 AM -15.1131 -53.8315 141° Southeast  Level Estimated
Thu 05:56:00 AM -15.2132 -53.7484 141° Southeast  Level Estimated
Thu 05:57:00 AM -15.3132 -53.6651 141° Southeast  Level Estimated
Thu 05:58:00 AM -15.4137 -53.5814 141° Southeast  Level Estimated
Thu 05:59:00 AM -15.5142 -53.4976 141° Southeast  Level Estimated
Thu 06:00:00 AM -15.6147 -53.4137 141° Southeast  Level Estimated
Thu 06:01:00 AM -15.7151 -53.3297 141° Southeast  Level Estimated
Thu 06:02:00 AM -15.8155 -53.2456 141° Southeast  Level Estimated
Thu 06:03:00 AM -15.9159 -53.1615 141° Southeast  Level Estimated
Thu 06:04:00 AM -16.0163 -53.0772 141° Southeast  Level Estimated
Thu 06:05:00 AM -16.1166 -52.9929 141° Southeast  Level Estimated
Thu 06:06:00 AM -16.2168 -52.9085 141° Southeast  Level Estimated
Thu 06:07:00 AM -16.3171 -52.8240 141° Southeast  Level Estimated
Thu 06:08:00 AM -16.4173 -52.7394 141° Southeast  Level Estimated
Thu 06:09:00 AM -16.5174 -52.6548 141° Southeast  Level Estimated
Thu 06:10:00 AM -16.6176 -52.5700 141° Southeast  Level Estimated
Thu 06:11:00 AM -16.7177 -52.4852 141° Southeast  Level Estimated
Thu 06:12:00 AM -16.8178 -52.4002 141° Southeast  Level Estimated
Thu 06:13:00 AM -16.9178 -52.3152 141° Southeast  Level Estimated
Thu 06:14:00 AM -17.0178 -52.2301 141° Southeast  Level Estimated
Thu 06:15:00 AM -17.1177 -52.1449 141° Southeast  Level Estimated
Thu 06:16:00 AM -17.2177 -52.0596 141° Southeast  Level Estimated
Thu 06:17:00 AM -17.3176 -51.9742 141° Southeast  Level Estimated
Thu 06:18:00 AM -17.4174 -51.8887 141° Southeast  Level Estimated
Thu 06:19:00 AM -17.5172 -51.8032 141° Southeast  Level Estimated
Thu 06:20:00 AM -17.6170 -51.7175 141° Southeast  Level Estimated
Thu 06:21:00 AM -17.7167 -51.6317 141° Southeast  Level Estimated
Thu 06:22:00 AM -17.8165 -51.5459 141° Southeast  Level Estimated
Thu 06:23:00 AM -17.9161 -51.4599 141° Southeast  Level Estimated
Thu 06:24:00 AM -18.0158 -51.3739 141° Southeast  Level Estimated
Thu 06:25:00 AM -18.1153 -51.2877 141° Southeast  Level Estimated
Thu 06:26:00 AM -18.2149 -51.2015 141° Southeast  Level Estimated
Thu 06:27:00 AM -18.3144 -51.1151 141° Southeast  Level Estimated
Thu 06:28:00 AM -18.4139 -51.0287 140° Southeast  Level Estimated
Thu 06:29:00 AM -18.5133 -50.9421 140° Southeast  Level Estimated
Thu 06:30:00 AM -18.6127 -50.8555 140° Southeast  Level Estimated
Thu 06:31:00 AM -18.7121 -50.7687 140° Southeast  Level Estimated
Thu 06:32:00 AM -18.8114 -50.6819 140° Southeast  Level Estimated
Thu 06:33:00 AM -18.9107 -50.5949 140° Southeast  Level Estimated
Thu 06:34:00 AM -19.0099 -50.5079 140° Southeast  Level Estimated
Thu 06:35:00 AM -19.1091 -50.4207 140° Southeast  Level Estimated
Thu 06:36:00 AM -19.2083 -50.3335 140° Southeast  Level Estimated
Thu 06:37:00 AM -19.3074 -50.2461 140° Southeast  Level Estimated
Thu 06:38:00 AM -19.4065 -50.1586 140° Southeast  Level Estimated
Thu 06:39:00 AM -19.5055 -50.0710 140° Southeast  Level Estimated
Thu 06:40:00 AM -19.6045 -49.9834 140° Southeast  Level Estimated
Thu 06:41:00 AM -19.7034 -49.8956 140° Southeast  Level Estimated
Thu 06:42:00 AM -19.8023 -49.8077 140° Southeast  Level Estimated
Thu 06:43:00 AM -19.9012 -49.7197 140° Southeast  Level Estimated
Thu 06:44:00 AM -20.0000 -49.6315 140° Southeast  Level Estimated
Thu 06:45:00 AM -20.0988 -49.5433 140° Southeast  Level Estimated
Thu 06:46:00 AM -20.1975 -49.4549 140° Southeast  Level Estimated
Thu 06:47:00 AM -20.2962 -49.3665 140° Southeast  Level Estimated
Thu 06:48:00 AM -20.3948 -49.2779 140° Southeast  Level Estimated
Thu 06:49:00 AM -20.4934 -49.1892 140° Southeast  Level Estimated
Thu 06:50:00 AM -20.5920 -49.1004 140° Southeast  Level Estimated
Thu 06:51:00 AM -20.6905 -49.0115 140° Southeast  Level Estimated
Thu 06:52:00 AM -20.7890 -48.9225 140° Southeast  Level Estimated
Thu 06:53:00 AM -20.8874 -48.8334 140° Southeast  Level Estimated
Thu 06:54:00 AM -20.9857 -48.7441 140° Southeast  Level Estimated
Thu 06:55:00 AM -21.0841 -48.6547 140° Southeast  Level Estimated
Thu 06:56:00 AM -21.1823 -48.5652 140° Southeast  Level Estimated
Thu 06:57:00 AM -21.2806 -48.4756 140° Southeast  Level Estimated
Thu 06:58:00 AM -21.3787 -48.3858 140° Southeast  Level Estimated
Thu 06:59:00 AM -21.4769 -48.2960 140° Southeast  Level Estimated
Thu 07:00:00 AM -21.5749 -48.2060 140° Southeast  Level Estimated
Thu 07:01:00 AM -21.6730 -48.1159 140° Southeast  Level Estimated
Thu 07:02:00 AM -21.7710 -48.0257 139° Southeast  Level Estimated
Thu 07:03:00 AM -21.8689 -47.9353 139° Southeast  Level Estimated
Thu 07:04:00 AM -21.9668 -47.8449 139° Southeast  Level Estimated
Thu 07:05:00 AM -22.0646 -47.7543 139° Southeast  Level Estimated
Thu 07:06:00 AM -22.1624 -47.6636 139° Southeast  Level Estimated
Thu 07:07:00 AM -22.2602 -47.5727 139° Southeast  Level Estimated
Thu 07:08:00 AM -22.3579 -47.4817 139° Southeast  Level Estimated
Thu 07:09:00 AM -22.4555 -47.3906 139° Southeast  Level Estimated
Thu 07:10:00 AM -22.5531 -47.2994 139° Southeast  Level Estimated
Thu 07:11:00 AM -22.6506 -47.2080 139° Southeast  Level Estimated
Thu 07:12:00 AM -22.7481 -47.1166 139° Southeast  Level Estimated
Thu 07:13:00 AM -22.8455 -47.0249 139° Southeast  Level Estimated
Thu 07:14:00 AM -22.9429 -46.9332 139° Southeast  Level Estimated
Thu 07:15:00 AM -23.0402 -46.8413 139° Southeast  Level Estimated
Thu 07:16:00 AM -23.1375 -46.7493 139° Southeast  Level Estimated
Thu 07:17:00 AM -23.2347 -46.6572 139° Southeast  Level Estimated
Thu 07:18:00 AM -23.3319 -46.5649 139° Southeast  Level Estimated
Thu 07:19:00 AM -23.4290 -46.4725 139° Southeast  Level Estimated
Thu 07:20:00 AM -23.4321 -46.4695 139° Southeast  Level Estimated
Thu 07:21:00 AM -23.4321 -46.4695 350° North  Level Estimated
Thu 07:22:00 AM -23.4321 -46.4695 350° North  Level Estimated
Thu 07:23:00 AM -23.4321 -46.4695 350° North  Level Estimated
Thu 07:24:00 AM -23.4321 -46.4695 350° North  Level Estimated
Thu 07:25:00 AM -23.4321 -46.4695 350° North  Level Estimated
Thu 07:26:00 AM -23.4321 -46.4695 350° North  Level Estimated
Thu 07:26:32 AM -22.9959 -46.4072 350° North 347 399 14,200  Level FlightAware ADS-B
Thu 07:28:27 AM -23.0912 -46.2529 124° Southeast 303 349 12,700 -882 Descending FlightAware ADS-B
Thu 07:30:30 AM -23.2172 -46.1635 210° Southwest 271 312 10,700 -1,176 Descending FlightAware ADS-B
Thu 07:32:32 AM -23.3547 -46.1513 175° South 222 255 7,900 -1,245 Descending FlightAware ADS-B
Thu 07:34:31 AM -23.3806 -46.2725 257° West 199 229 5,700 -1,109 Descending FlightAware ADS-B
Thu 07:37:00 AM -23.4321 -46.4695 254° West  Level Estimated
Thu 07:38:00 AM -23.4321 -46.4695 350° North  Level Estimated
Thu 07:39:00 AM -23.4321 -46.4695 350° North  Level Estimated

Login

Don't have an account? Register now (free) for customized features, flight alerts, and more!